Montgomery, WV (25136)

10:54 AM EDT on September 02, 2015 (GMT -0400)
KWVGLENF2 | | Change Station
CLOSE
Current Station
Personal Weather Station
Location: Glen Ferris, WV
Elevation: 676 ft
Nearby Weather Stations

Elev 676 ft 38.15 °N, 81.22 °W | Updated 7 minutes ago

Clear
Clear
80.0 °F
Feels Like 83 °F
N
0.0
Wind Variable Wind from NE
Gusts 0.0 mph

Today
High -- | Low -- °F
--% Chance of Precip.
Yesterday
High -- | Low -- °F
Precip. -- in
6:55 AM 7:53 PM
Waning Gibbous, 80% visible
Pressure 30.12 in
Visibility 7.0 miles
Clouds Clear
Heat Index 83 °F
Dew Point 71 °F
Humidity 73%
Rainfall 0.00 in
Snow Depth Not available.
UV 4 out of 12
Pollen 9.40 out of 12
Air Quality Not available.
Flu Activity Not available.
METAR KCRW 021354Z 00000KT 7SM CLR 24/19 A3015 RMK AO2 SLP199 T02440194 $
Pressure 30.12 in
Visibility 7.0 miles
Clouds Clear
Heat Index 83 °F
Dew Point 71 °F
Humidity 73%
Rainfall 0.00 in
Snow Depth Not available.
UV 4 out of 12
Pollen 9.40 out of 12
Air Quality Not available.
Flu Activity Not available.
METAR KCRW 021354Z 00000KT 7SM CLR 24/19 A3015 RMK AO2 SLP199 T02440194 $

10-Day Weather Forecast

×

Almanac

Astronomy

Sep. 02, 2015 Rise Set
Actual Time
Civil Twilight
Nautical Twilight
Astronomical Twilight
Moon
Length of Visible Light
Length of Day
Tomorrow will be .
, % of the Moon is Illuminated

Today's Extremes

State Highs State Lows

Community

WunderPhotos

Upload Photos

1,851,763 photos uploaded!

WunderBlogs® & News

Nearby

Air Quality

  Air Quality AQ Index Pollutant
Not available.

Snow Depth

Station Depth Elevation

Earthquake Activity

City Distance Mag. Time & Date
Minimum magnitude displayed is 2.5.

Coastal Water Temperatures

Place Temperature

Stations

Nearby Weather Stations

Station Location Temp. Windchill Dew Point Humidity Wind Precip. Elev Updated Type